Impacts METAR Board INFO
IDs:

KLGA - New York/La Guardia, NY, US

Updated at: 0724 UTC 11 Dec 2017
Potential Impact None Slight Moderate High
Time10/19Z 10/20Z 10/21Z 10/22Z 10/23Z 11/00Z 11/01Z 11/02Z 11/03Z 11/04Z 11/05Z 11/06Z 11/07Z
VIS10 10 10 10 10 10 10 10 10 10 10 10 10
CIG-- 50 55 55 -- -- 150 150 150 110 110 90 100
CoverFEWBKNBKNBKNSCTSCTBKNBKNOVCOVCOVCOVCOVC
FltCatVFRVFRVFRVFRVFRVFRVFRVFRVFRVFRVFRVFRVFR
WX--------------------------
WDir270260250260260230220240240240230240240
WSpd12 16 13 8 14 11 11 11 12 9 10 11 12
WGst-- 20 20 27 24 -- -- 19 -- -- -- 16 --
Raw hourly METARs
KLGA 101851Z 27012KT 10SM FEW039 04/M04 A2991 RMK AO2 SLP127 T00441044 $
KLGA 101951Z 26016G20KT 10SM BKN050 04/M06 A2992 RMK AO2 SLP132 T00441056 $
KLGA 102051Z 25013G20KT 10SM BKN055 04/M06 A2995 RMK AO2 SLP140 T00391056 53012 $
KLGA 102151Z 26008G27KT 10SM BKN055 04/M06 A2996 RMK AO2 PK WND 29027/2146 SLP145 T00391056 $
KLGA 102251Z 26014G24KT 10SM FEW040 SCT060 03/M06 A2998 RMK AO2 SLP153 T00331061 $
KLGA 102351Z 23011KT 10SM SCT055 03/M07 A2999 RMK AO2 SLP155 4/002 T00331067 10044 20033 51015 $
KLGA 110051Z 22011KT 10SM SCT046 BKN150 03/M06 A3000 RMK AO2 SLP159 T00281056 $
KLGA 110151Z 24011G19KT 10SM FEW046 BKN150 03/M06 A3001 RMK AO2 SLP160 T00281056 $
KLGA 110251Z 24012KT 10SM FEW050 OVC150 03/M07 A3001 RMK AO2 SLP161 T00281067 51007 $
KLGA 110351Z 24009KT 10SM FEW050 SCT090 OVC110 03/M07 A3001 RMK AO2 SLP163 T00281067 $
KLGA 110451Z 23010KT 10SM OVC110 03/M06 A3001 RMK AO2 SLP163 T00281061 400440000 $
KLGA 110551Z 24011G16KT 10SM BKN090 OVC110 03/M06 A3000 RMK AO2 SLP159 4/002 T00281061 10033 20028 58002 $
KLGA 110651Z 24012KT 10SM OVC100 03/M06 A2999 RMK AO2 SLP156 T00281061 $